Accueil
METAR-TAF:

METAR-TAF

Aéroports :

Trang, Thaïlande

latitude: 07-31N, longitude: 099-37E, altitude: 14 m

Observation

Le bulletin a été fait il y a 5 heures et 25 minutes, à 13:00 UTC
Vent 2 kt de direction variable
Température 28°C
Humidité 89%
Pression 1007 hPa
Visibilité 10 km ou plus
Quelques nuages à une hauteur de 3000 ft

METAR: VTST 151300Z VRB02KT 9999 FEW030 28/26 Q1007 NOSIG

Heure: 01:25 (18:25 UTC)

Prévision

Le bulletin a été fait il y a 1 heure et 25 minutes, à 17:00 UTC
Prévision valable du 15 à 18 UTC au 16 à 18 UTC
Vent 5 kt de ouest
Visibilité 10 km ou plus
Nuages épars à une hauteur de 2000 ft

TAF: VTST 151700Z 1518/1618 26005KT 9999 SCT020

Observations et prévisions météorologiques de plus de 4000 aéroports (messages METAR et TAF).

Les stations disponibles sont représentées par des disques jaunes et rouges sur la carte.

Passer la souris dessus pour voir le nom de la station.

Cliquer dessus pour voir les observations et prévisions météorologiques.

Pour changer de carte: cliquez sur les boutons verts avec une croix noire pour zoomer, sur le bouton vert avec un tiret pour effectuer un zoom arrière, ou sur les flèches vertes pour les cartes adjacentes.


METAR-TAF: